createdAt,value
2022-11-22T00:01:58.193Z,136.17
2022-11-22T00:05:01.204Z,127.45
2022-11-22T00:08:04.172Z,103.07
2022-11-22T00:11:06.758Z,110.82
2022-11-22T00:14:09.363Z,130.90
2022-11-22T00:17:11.728Z,124.85
2022-11-22T00:20:14.703Z,123.65
2022-11-22T00:23:18.076Z,105.70
2022-11-22T00:26:21.276Z,139.88
2022-11-22T00:29:24.815Z,161.10
2022-11-22T00:32:27.372Z,129.45
2022-11-22T00:35:29.825Z,126.00
2022-11-22T00:38:32.377Z,124.07
2022-11-22T00:41:34.835Z,120.57
2022-11-22T00:44:37.436Z,108.05
2022-11-22T00:47:39.778Z,112.78
2022-11-22T00:50:43.707Z,111.60
2022-11-22T00:56:49.014Z,115.07
2022-11-22T00:59:51.347Z,110.22
2022-11-22T01:02:53.917Z,108.05
2022-11-22T01:05:56.500Z,105.68
2022-11-22T01:08:59.371Z,105.68
2022-11-22T01:12:01.828Z,82.33
2022-11-22T01:15:05.523Z,97.47
2022-11-22T01:18:07.990Z,91.95
2022-11-22T01:21:12.060Z,96.97
2022-11-22T01:24:15.011Z,102.47
2022-11-22T01:27:17.592Z,97.53
2022-11-22T01:30:20.579Z,112.85
2022-11-22T01:33:23.015Z,86.43
2022-11-22T01:36:26.305Z,117.55
2022-11-22T01:39:29.216Z,111.45
2022-11-22T01:42:57.443Z,111.80
2022-11-22T01:46:04.891Z,124.22
2022-11-22T01:49:30.406Z,113.55
2022-11-22T01:52:36.012Z,121.15
2022-11-22T01:55:39.789Z,132.88
2022-11-22T01:58:44.967Z,133.77
2022-11-22T02:01:47.728Z,139.10
2022-11-22T02:04:51.973Z,153.07
2022-11-22T02:08:02.014Z,148.63
2022-11-22T02:11:04.918Z,142.20
2022-11-22T02:14:08.907Z,150.77
2022-11-22T02:17:11.343Z,152.52
2022-11-22T02:20:14.392Z,147.57
2022-11-22T02:23:41.050Z,144.47
2022-11-22T02:26:43.595Z,138.25
2022-11-22T02:29:46.134Z,153.48
2022-11-22T02:32:48.905Z,150.50
2022-11-22T02:35:51.511Z,142.70
2022-11-22T02:38:54.658Z,143.52
2022-11-22T02:41:57.733Z,109.47
2022-11-22T02:45:00.150Z,108.57
2022-11-22T02:48:14.298Z,150.82
2022-11-22T02:54:20.499Z,145.38
2022-11-22T02:57:23.186Z,141.47
2022-11-22T03:00:26.328Z,127.07
2022-11-22T03:03:29.218Z,141.30
2022-11-22T03:06:31.713Z,132.30
2022-11-22T03:09:34.377Z,126.28
2022-11-22T03:12:36.865Z,133.73
2022-11-22T03:15:39.735Z,125.15
2022-11-22T03:18:42.417Z,125.93
2022-11-22T03:21:44.956Z,132.43
2022-11-22T03:24:47.275Z,137.02
2022-11-22T03:27:50.386Z,142.40
2022-11-22T03:30:53.109Z,118.97
2022-11-22T03:33:56.496Z,168.43
2022-11-22T03:36:59.161Z,146.43
2022-11-22T03:40:01.521Z,165.80
2022-11-22T03:43:04.273Z,187.40
2022-11-22T03:46:06.889Z,167.35
2022-11-22T03:49:12.245Z,167.75
2022-11-22T03:52:15.986Z,166.93
2022-11-22T03:55:18.654Z,158.55
2022-11-22T03:58:22.072Z,158.55
2022-11-22T04:01:24.556Z,170.05
2022-11-22T04:04:27.620Z,159.32
2022-11-22T04:07:30.533Z,155.98
2022-11-22T04:10:33.166Z,159.30
2022-11-22T04:14:08.876Z,148.45
2022-11-22T04:17:35.522Z,172.85
2022-11-22T04:20:57.431Z,180.13
2022-11-22T04:24:19.143Z,188.52
2022-11-22T04:27:21.638Z,192.48
2022-11-22T04:30:44.910Z,185.32
2022-11-22T04:33:47.394Z,186.80
2022-11-22T04:36:49.911Z,177.13
2022-11-22T04:39:52.272Z,175.38
2022-11-22T04:43:13.322Z,171.77
2022-11-22T04:46:17.963Z,175.25
2022-11-22T04:49:21.931Z,188.98
2022-11-22T04:52:42.989Z,143.77
2022-11-22T04:55:47.467Z,178.25
2022-11-22T04:58:51.667Z,182.43
2022-11-22T05:01:53.985Z,200.60
2022-11-22T05:04:56.295Z,207.95
2022-11-22T05:07:59.721Z,196.10
2022-11-22T05:11:02.271Z,162.70
2022-11-22T05:14:05.392Z,204.75
2022-11-22T05:17:11.627Z,172.75
2022-11-22T05:20:16.603Z,210.93
2022-11-22T05:23:38.992Z,224.23
2022-11-22T05:26:42.025Z,226.45
2022-11-22T05:29:44.634Z,298.27
2022-11-22T05:32:47.905Z,197.95
2022-11-22T05:35:50.863Z,243.48
2022-11-22T05:38:53.612Z,219.63
2022-11-22T05:41:56.277Z,223.10
2022-11-22T05:44:58.942Z,219.43
2022-11-22T05:48:01.535Z,224.70
2022-11-22T05:51:08.652Z,195.15
2022-11-22T05:54:13.042Z,189.63
2022-11-22T05:57:16.117Z,193.07
2022-11-22T06:00:19.207Z,196.95
2022-11-22T06:03:22.133Z,234.33
2022-11-22T06:06:24.532Z,238.10
2022-11-22T06:09:27.129Z,226.50
2022-11-22T06:12:30.303Z,237.20
2022-11-22T06:15:33.227Z,237.65
2022-11-22T06:18:36.173Z,219.93
2022-11-22T06:21:40.302Z,248.77
2022-11-22T06:24:43.219Z,215.45
2022-11-22T06:27:46.062Z,214.95
2022-11-22T06:30:48.670Z,202.33
2022-11-22T06:33:52.231Z,638.47
2022-11-22T06:36:54.478Z,360.55
2022-11-22T06:39:56.872Z,259.10
2022-11-22T06:42:59.346Z,232.98
2022-11-22T06:46:02.945Z,234.80
2022-11-22T06:49:07.134Z,201.77
2022-11-22T06:52:09.748Z,214.20
2022-11-22T06:55:42.301Z,191.73
2022-11-22T06:58:36.930Z,191.85
2022-11-22T07:01:40.237Z,199.30
2022-11-22T07:05:02.366Z,177.73
2022-11-22T07:08:13.295Z,290.03
2022-11-22T07:11:22.041Z,744.60
2022-11-22T07:14:24.230Z,921.05
2022-11-22T07:17:26.664Z,602.25
2022-11-22T07:20:29.853Z,757.78
2022-11-22T07:23:32.918Z,576.55
2022-11-22T07:26:35.492Z,329.73
2022-11-22T07:29:37.904Z,541.65
2022-11-22T07:32:40.436Z,573.95
2022-11-22T07:35:43.403Z,653.72
2022-11-22T07:38:46.458Z,466.42
2022-11-22T07:41:49.105Z,137.50
2022-11-22T07:44:51.715Z,155.48
2022-11-22T07:47:54.585Z,127.20
2022-11-22T07:51:00.678Z,131.45
2022-11-22T07:54:03.273Z,132.23
2022-11-22T07:57:05.602Z,129.65
2022-11-22T08:00:09.192Z,136.75
2022-11-22T08:03:17.455Z,138.05
2022-11-22T08:06:20.643Z,117.38
2022-11-22T08:09:23.191Z,119.22
2022-11-22T08:12:25.835Z,112.97
2022-11-22T08:15:28.190Z,107.28
2022-11-22T08:18:30.916Z,109.32
2022-11-22T08:21:33.543Z,92.68
2022-11-22T08:24:37.134Z,81.05
2022-11-22T08:27:41.429Z,107.28
2022-11-22T08:30:44.403Z,102.35
2022-11-22T08:33:47.372Z,79.50
2022-11-22T08:36:50.063Z,75.70
2022-11-22T08:39:52.577Z,90.78
2022-11-22T08:42:56.699Z,107.25
2022-11-22T08:46:02.281Z,108.85
2022-11-22T08:49:06.646Z,94.95
2022-11-22T08:52:09.276Z,97.43
2022-11-22T08:55:12.681Z,81.77
2022-11-22T08:58:15.737Z,97.40
2022-11-22T09:01:19.322Z,96.85
2022-11-22T09:04:44.081Z,85.72
2022-11-22T09:11:12.162Z,72.00
2022-11-22T09:14:14.620Z,80.80
2022-11-22T09:17:18.258Z,73.00
2022-11-22T09:20:21.174Z,74.05
2022-11-22T09:23:23.453Z,75.45
2022-11-22T09:26:25.867Z,63.97
2022-11-22T09:29:28.981Z,64.57
2022-11-22T09:32:33.982Z,62.70
2022-11-22T09:35:36.474Z,73.38
2022-11-22T09:38:39.373Z,77.13
2022-11-22T09:42:10.625Z,76.55
2022-11-22T09:45:46.702Z,65.63
2022-11-22T09:49:19.300Z,74.50
2022-11-22T09:53:20.359Z,60.47
2022-11-22T09:56:26.761Z,63.90
2022-11-22T09:59:33.758Z,67.80
2022-11-22T10:02:59.404Z,63.63
2022-11-22T10:06:08.081Z,63.80
2022-11-22T10:09:35.885Z,67.30
2022-11-22T10:12:58.316Z,70.10
2022-11-22T10:16:24.252Z,55.30
2022-11-22T10:19:40.682Z,66.78
2022-11-22T10:22:43.340Z,69.30
2022-11-22T10:26:01.889Z,45.95
2022-11-22T10:29:32.474Z,66.70
2022-11-22T10:32:46.890Z,69.40
2022-11-22T10:36:19.549Z,65.78
2022-11-22T10:39:53.811Z,60.78
2022-11-22T10:43:35.216Z,50.25
2022-11-22T10:46:51.077Z,66.15
2022-11-22T10:50:02.197Z,108.25
2022-11-22T10:53:07.433Z,73.43
2022-11-22T10:56:33.583Z,96.82
2022-11-22T11:00:13.114Z,80.00
2022-11-22T11:03:28.295Z,178.68
2022-11-22T11:07:10.601Z,79.18
2022-11-22T11:10:29.218Z,110.88
2022-11-22T11:13:45.347Z,103.25
2022-11-22T11:16:48.445Z,95.50
2022-11-22T11:19:51.470Z,70.43
2022-11-22T11:23:14.104Z,74.25
2022-11-22T11:26:27.777Z,67.80
2022-11-22T11:29:40.987Z,73.25
2022-11-22T11:32:55.246Z,62.37
2022-11-22T11:36:04.078Z,66.60
2022-11-22T11:39:20.807Z,63.58
2022-11-22T11:42:32.512Z,60.33
2022-11-22T11:45:34.900Z,66.28
2022-11-22T11:48:38.621Z,70.65
2022-11-22T11:51:45.514Z,60.92
2022-11-22T11:54:54.767Z,64.55
2022-11-22T11:57:57.073Z,86.95
2022-11-22T12:01:00.473Z,56.90
2022-11-22T12:04:04.931Z,64.55
2022-11-22T12:07:31.251Z,59.10
2022-11-22T12:11:06.539Z,61.17
2022-11-22T12:14:19.975Z,73.70
2022-11-22T12:17:28.781Z,88.70
2022-11-22T12:20:42.920Z,73.82
2022-11-22T12:23:50.606Z,59.53
2022-11-22T12:26:56.470Z,75.97
2022-11-22T12:29:59.846Z,55.65
2022-11-22T12:33:04.078Z,86.10
2022-11-22T12:36:13.620Z,57.80
2022-11-22T12:39:22.134Z,59.55
2022-11-22T12:42:35.073Z,55.88
2022-11-22T12:45:41.878Z,63.03
2022-11-22T12:48:49.182Z,60.15
2022-11-22T12:51:56.665Z,69.97
2022-11-22T12:55:05.327Z,63.92
2022-11-22T12:58:33.113Z,83.90
2022-11-22T13:01:44.905Z,73.43
2022-11-22T13:05:01.293Z,94.00
2022-11-22T13:08:06.899Z,73.45
2022-11-22T13:11:40.057Z,64.40
2022-11-22T13:14:45.610Z,83.38
2022-11-22T13:17:48.711Z,82.30
2022-11-22T13:21:04.674Z,68.70
2022-11-22T13:24:53.334Z,219.82
2022-11-22T13:28:01.065Z,88.70
2022-11-22T13:31:07.827Z,77.63
2022-11-22T13:34:27.834Z,166.70
2022-11-22T13:37:33.586Z,169.98
2022-11-22T13:40:40.038Z,150.68
2022-11-22T13:44:18.563Z,90.35
2022-11-22T13:47:25.660Z,89.60
2022-11-22T13:50:41.620Z,126.50
2022-11-22T13:53:45.922Z,78.32
2022-11-22T13:56:49.805Z,212.75
2022-11-22T14:00:10.754Z,348.75
2022-11-22T14:03:34.344Z,265.02
2022-11-22T14:06:36.900Z,385.37
2022-11-22T14:09:53.653Z,299.48
2022-11-22T14:13:19.125Z,445.92
2022-11-22T14:17:10.419Z,390.48
2022-11-22T14:20:20.631Z,138.43
2022-11-22T14:24:18.879Z,183.00
2022-11-22T14:27:53.798Z,144.20
2022-11-22T14:30:58.321Z,137.57
2022-11-22T14:34:19.537Z,212.10
2022-11-22T14:37:22.199Z,298.67
2022-11-22T14:40:35.254Z,247.68
2022-11-22T14:43:40.126Z,205.27
2022-11-22T14:46:56.709Z,171.68
2022-11-22T14:49:59.811Z,195.15
2022-11-22T14:53:31.780Z,191.68
2022-11-22T14:56:36.511Z,148.98
2022-11-22T14:59:50.188Z,189.67
2022-11-22T15:03:05.183Z,159.30
2022-11-22T15:09:17.242Z,146.57
2022-11-22T15:09:55.303Z,120.95
2022-11-22T15:12:58.070Z,99.72
2022-11-22T15:58:03.266Z,138.10
2022-11-22T16:01:19.070Z,126.78
2022-11-22T16:04:28.446Z,122.28
2022-11-22T16:07:41.336Z,138.60
2022-11-22T16:10:50.140Z,134.93
2022-11-22T16:13:53.660Z,171.35
2022-11-22T16:17:24.063Z,141.27
2022-11-22T16:20:30.376Z,156.40
2022-11-22T16:23:36.219Z,110.38
2022-11-22T16:26:40.362Z,122.68
2022-11-22T16:32:48.599Z,115.45
2022-11-22T16:35:56.623Z,105.70
2022-11-22T16:38:59.693Z,110.70
2022-11-22T16:42:03.292Z,102.03
2022-11-22T16:45:12.959Z,114.88
2022-11-22T16:48:33.020Z,109.32
2022-11-22T16:51:36.436Z,118.07
2022-11-22T16:54:40.023Z,119.27
2022-11-22T17:00:47.347Z,109.68
2022-11-22T17:03:51.370Z,113.38
2022-11-22T17:09:57.849Z,110.65
2022-11-22T17:13:01.015Z,109.60
2022-11-22T17:16:04.404Z,108.05
2022-11-22T17:19:14.534Z,110.40
2022-11-22T17:22:29.927Z,111.90
2022-11-22T17:25:33.073Z,110.10
2022-11-22T17:28:35.630Z,89.13
2022-11-22T17:31:38.794Z,113.00
2022-11-22T17:34:41.652Z,98.55
2022-11-22T17:37:44.282Z,98.85
2022-11-22T17:40:47.239Z,104.97
2022-11-22T17:43:50.847Z,74.22
2022-11-22T17:46:53.833Z,88.45
2022-11-22T17:49:56.426Z,94.35
2022-11-22T17:52:59.131Z,92.35
2022-11-22T17:56:10.383Z,97.47
2022-11-22T17:59:13.558Z,94.53
2022-11-22T18:02:16.190Z,103.00
2022-11-22T18:05:18.650Z,91.60
2022-11-22T18:08:21.095Z,93.65
2022-11-22T18:11:23.806Z,100.50
2022-11-22T18:14:27.771Z,97.35
2022-11-22T18:17:35.216Z,95.45
2022-11-22T18:20:38.816Z,95.40
2022-11-22T18:23:41.883Z,95.35
2022-11-22T18:26:44.474Z,98.28
2022-11-22T18:29:47.104Z,106.53
2022-11-22T18:32:49.729Z,104.88
2022-11-22T18:36:00.568Z,105.05
2022-11-22T18:39:03.031Z,100.80
2022-11-22T18:42:11.704Z,85.07
2022-11-22T18:45:14.232Z,107.97
2022-11-22T18:48:16.906Z,88.40
2022-11-22T18:51:19.496Z,86.32
2022-11-22T18:54:23.048Z,92.07
2022-11-22T18:57:25.568Z,101.63
2022-11-22T19:00:29.456Z,97.93
2022-11-22T19:03:32.156Z,106.82
2022-11-22T19:06:34.596Z,96.43
2022-11-22T19:09:36.958Z,107.32
2022-11-22T19:12:39.904Z,111.22
2022-11-22T19:15:42.280Z,110.60
2022-11-22T19:18:45.270Z,101.63
2022-11-22T19:21:48.801Z,94.32
2022-11-22T19:24:51.206Z,98.00
2022-11-22T19:27:53.836Z,118.05
2022-11-22T19:31:06.555Z,102.47
2022-11-22T19:34:08.975Z,97.50
2022-11-22T19:37:11.913Z,101.18
2022-11-22T19:40:14.655Z,93.40
2022-11-22T19:43:18.486Z,108.50
2022-11-22T19:46:22.880Z,94.55
2022-11-22T19:49:27.416Z,150.13
2022-11-22T19:52:29.928Z,130.50
2022-11-22T19:55:36.422Z,103.10
2022-11-22T19:58:40.167Z,103.90
2022-11-22T20:04:45.773Z,96.07
2022-11-22T20:07:48.077Z,90.43
2022-11-22T20:10:53.470Z,92.97
2022-11-22T20:13:55.927Z,102.75
2022-11-22T20:16:58.594Z,101.78
2022-11-22T20:20:01.154Z,101.80
2022-11-22T20:23:03.470Z,115.05
2022-11-22T20:26:15.093Z,107.03
2022-11-22T20:29:22.054Z,111.93
2022-11-22T20:32:24.655Z,93.47
2022-11-22T20:35:27.275Z,129.43
2022-11-22T20:38:32.845Z,100.03
2022-11-22T20:41:36.614Z,124.95
2022-11-22T20:44:40.926Z,130.90
2022-11-22T20:47:43.870Z,119.28
2022-11-22T20:50:51.856Z,104.25
2022-11-22T20:53:56.611Z,110.63
2022-11-22T20:57:00.685Z,108.20
2022-11-22T21:03:07.243Z,116.38
2022-11-22T21:06:11.740Z,137.88
2022-11-22T21:09:16.702Z,116.15
2022-11-22T21:12:19.872Z,112.35
2022-11-22T21:15:22.425Z,115.78
2022-11-22T21:18:26.232Z,110.13
2022-11-22T21:24:31.700Z,101.00
2022-11-22T21:27:36.050Z,98.30
2022-11-22T21:30:38.968Z,121.97
2022-11-22T21:33:42.950Z,106.03
2022-11-22T21:39:48.994Z,149.67
2022-11-22T21:42:51.562Z,117.32
2022-11-22T21:45:54.432Z,96.28
2022-11-22T21:49:00.098Z,89.27
2022-11-22T21:52:02.895Z,100.10
2022-11-22T21:55:06.212Z,98.57
2022-11-22T21:58:08.612Z,87.47
2022-11-22T22:01:14.390Z,88.97
2022-11-22T22:04:17.525Z,85.57
2022-11-22T22:07:44.692Z,94.13
2022-11-22T22:10:42.494Z,82.95
2022-11-22T22:13:45.614Z,86.43
2022-11-22T22:16:48.630Z,59.85
2022-11-22T22:19:52.525Z,64.17
2022-11-22T22:25:59.478Z,79.78
2022-11-22T22:29:02.291Z,79.97
2022-11-22T22:32:10.401Z,75.35
2022-11-22T22:35:13.706Z,91.03
2022-11-22T22:38:16.226Z,84.55
2022-11-22T22:41:19.213Z,81.50
2022-11-22T22:44:21.792Z,83.43
2022-11-22T22:47:25.871Z,84.68
2022-11-22T22:50:28.478Z,79.63
2022-11-22T22:53:31.537Z,79.55
2022-11-22T22:56:34.302Z,74.18
2022-11-22T22:59:37.702Z,82.53
2022-11-22T23:02:40.432Z,84.90
2022-11-22T23:05:42.822Z,82.28
2022-11-22T23:08:47.735Z,82.80
2022-11-22T23:12:08.634Z,90.55
2022-11-22T23:15:11.222Z,82.93
2022-11-22T23:18:14.501Z,85.50
2022-11-22T23:21:16.910Z,69.95
2022-11-22T23:24:21.371Z,82.40
2022-11-22T23:27:24.766Z,87.20
2022-11-22T23:30:28.338Z,84.45
2022-11-22T23:36:40.417Z,89.05
2022-11-22T23:39:43.691Z,88.50
2022-11-22T23:42:47.058Z,94.95
2022-11-22T23:45:49.543Z,61.45
2022-11-22T23:49:00.867Z,84.78
2022-11-22T23:52:03.454Z,88.88
2022-11-22T23:55:06.599Z,87.75
2022-11-22T23:58:09.078Z,85.83
